sensor_id;sensor_type;location;lat;lon;timestamp;pressure;altitude;pressure_sealevel;temperature;humidity
45872;BME280;32333;55.844;-3.210;2023-04-22T00:01:49;99460.86;;;3.84;100.00
45872;BME280;32333;55.844;-3.210;2023-04-22T00:04:16;99453.37;;;3.37;100.00
45872;BME280;32333;55.844;-3.210;2023-04-22T00:06:44;99453.62;;;3.00;100.00
45872;BME280;32333;55.844;-3.210;2023-04-22T00:09:11;99452.73;;;3.31;100.00
45872;BME280;32333;55.844;-3.210;2023-04-22T00:11:39;99435.18;;;3.86;100.00
45872;BME280;32333;55.844;-3.210;2023-04-22T00:14:35;99439.61;;;4.09;100.00
45872;BME280;32333;55.844;-3.210;2023-04-22T00:17:03;99441.35;;;3.51;100.00
45872;BME280;32333;55.844;-3.210;2023-04-22T00:19:30;99440.01;;;2.41;100.00
45872;BME280;32333;55.844;-3.210;2023-04-22T00:21:57;99433.72;;;3.92;100.00
45872;BME280;32333;55.844;-3.210;2023-04-22T00:24:25;99426.97;;;4.77;100.00
45872;BME280;32333;55.844;-3.210;2023-04-22T00:26:52;99426.45;;;4.01;100.00
45872;BME280;32333;55.844;-3.210;2023-04-22T00:29:20;99414.52;;;4.24;100.00
45872;BME280;32333;55.844;-3.210;2023-04-22T00:31:48;99417.42;;;3.24;100.00
45872;BME280;32333;55.844;-3.210;2023-04-22T00:34:15;99412.51;;;3.82;100.00
45872;BME280;32333;55.844;-3.210;2023-04-22T00:36:44;99410.66;;;3.40;100.00
45872;BME280;32333;55.844;-3.210;2023-04-22T00:39:11;99412.45;;;3.33;100.00
45872;BME280;32333;55.844;-3.210;2023-04-22T00:41:40;99403.45;;;4.02;100.00
45872;BME280;32333;55.844;-3.210;2023-04-22T00:44:35;99396.31;;;3.66;100.00
45872;BME280;32333;55.844;-3.210;2023-04-22T00:47:03;99383.35;;;3.31;100.00
45872;BME280;32333;55.844;-3.210;2023-04-22T00:49:31;99380.55;;;4.24;100.00
45872;BME280;32333;55.844;-3.210;2023-04-22T00:52:00;99381.99;;;3.63;100.00
45872;BME280;32333;55.844;-3.210;2023-04-22T00:54:28;99379.88;;;3.56;100.00
45872;BME280;32333;55.844;-3.210;2023-04-22T00:56:56;99377.01;;;2.83;100.00
45872;BME280;32333;55.844;-3.210;2023-04-22T00:59:24;99369.10;;;4.05;100.00
45872;BME280;32333;55.844;-3.210;2023-04-22T01:01:53;99368.84;;;3.61;100.00
45872;BME280;32333;55.844;-3.210;2023-04-22T01:04:21;99366.19;;;3.17;100.00
45872;BME280;32333;55.844;-3.210;2023-04-22T01:06:51;99368.49;;;3.21;100.00
45872;BME280;32333;55.844;-3.210;2023-04-22T01:09:18;99358.80;;;3.22;100.00
45872;BME280;32333;55.844;-3.210;2023-04-22T01:11:47;99349.90;;;3.09;100.00
45872;BME280;32333;55.844;-3.210;2023-04-22T01:14:36;99347.01;;;3.16;100.00
45872;BME280;32333;55.844;-3.210;2023-04-22T01:17:03;99340.86;;;3.12;100.00
45872;BME280;32333;55.844;-3.210;2023-04-22T01:19:31;99337.17;;;3.80;100.00
45872;BME280;32333;55.844;-3.210;2023-04-22T01:21:58;99330.13;;;3.19;100.00
45872;BME280;32333;55.844;-3.210;2023-04-22T01:24:27;99329.55;;;3.45;100.00
45872;BME280;32333;55.844;-3.210;2023-04-22T01:26:54;99313.91;;;3.10;100.00
45872;BME280;32333;55.844;-3.210;2023-04-22T01:29:21;99313.12;;;2.38;100.00
45872;BME280;32333;55.844;-3.210;2023-04-22T01:31:49;99305.57;;;2.84;100.00
45872;BME280;32333;55.844;-3.210;2023-04-22T01:34:17;99302.56;;;3.06;100.00
45872;BME280;32333;55.844;-3.210;2023-04-22T01:36:45;99294.39;;;3.07;100.00
45872;BME280;32333;55.844;-3.210;2023-04-22T01:39:12;99286.69;;;2.84;100.00
45872;BME280;32333;55.844;-3.210;2023-04-22T01:41:40;99286.32;;;2.82;100.00
45872;BME280;32333;55.844;-3.210;2023-04-22T01:44:35;99280.47;;;3.34;100.00
45872;BME280;32333;55.844;-3.210;2023-04-22T01:47:03;99280.37;;;3.23;100.00
45872;BME280;32333;55.844;-3.210;2023-04-22T01:49:30;99275.01;;;3.35;100.00
45872;BME280;32333;55.844;-3.210;2023-04-22T01:51:58;99268.90;;;2.74;100.00
45872;BME280;32333;55.844;-3.210;2023-04-22T01:54:26;99261.39;;;3.01;100.00
45872;BME280;32333;55.844;-3.210;2023-04-22T01:56:54;99255.93;;;2.96;100.00
45872;BME280;32333;55.844;-3.210;2023-04-22T01:59:23;99263.20;;;3.39;100.00
45872;BME280;32333;55.844;-3.210;2023-04-22T02:01:50;99252.37;;;3.13;100.00
45872;BME280;32333;55.844;-3.210;2023-04-22T02:04:18;99249.25;;;3.26;100.00
45872;BME280;32333;55.844;-3.210;2023-04-22T02:06:45;99242.08;;;3.44;100.00
45872;BME280;32333;55.844;-3.210;2023-04-22T02:09:13;99236.40;;;3.57;100.00
45872;BME280;32333;55.844;-3.210;2023-04-22T02:11:40;99237.76;;;3.99;100.00
45872;BME280;32333;55.844;-3.210;2023-04-22T02:14:35;99231.14;;;3.90;100.00
45872;BME280;32333;55.844;-3.210;2023-04-22T02:17:03;99234.31;;;3.64;100.00
45872;BME280;32333;55.844;-3.210;2023-04-22T02:19:31;99227.88;;;4.15;100.00
45872;BME280;32333;55.844;-3.210;2023-04-22T02:21:58;99225.29;;;4.38;100.00
45872;BME280;32333;55.844;-3.210;2023-04-22T02:24:26;99220.68;;;3.74;100.00
45872;BME280;32333;55.844;-3.210;2023-04-22T02:26:54;99216.66;;;3.41;100.00
45872;BME280;32333;55.844;-3.210;2023-04-22T02:29:22;99211.11;;;3.23;100.00
45872;BME280;32333;55.844;-3.210;2023-04-22T02:31:50;99197.46;;;2.83;100.00
45872;BME280;32333;55.844;-3.210;2023-04-22T02:34:17;99200.55;;;3.70;100.00
45872;BME280;32333;55.844;-3.210;2023-04-22T02:36:45;99193.57;;;3.06;100.00
45872;BME280;32333;55.844;-3.210;2023-04-22T02:39:12;99185.23;;;3.79;100.00
45872;BME280;32333;55.844;-3.210;2023-04-22T02:41:40;99186.77;;;3.17;100.00
45872;BME280;32333;55.844;-3.210;2023-04-22T02:44:35;99186.13;;;3.23;100.00
45872;BME280;32333;55.844;-3.210;2023-04-22T02:47:02;99190.86;;;3.82;100.00
45872;BME280;32333;55.844;-3.210;2023-04-22T02:49:29;99181.69;;;3.46;100.00
45872;BME280;32333;55.844;-3.210;2023-04-22T02:51:57;99180.41;;;3.73;100.00
45872;BME280;32333;55.844;-3.210;2023-04-22T02:54:25;99174.30;;;3.39;100.00
45872;BME280;32333;55.844;-3.210;2023-04-22T02:56:53;99176.42;;;3.51;100.00
45872;BME280;32333;55.844;-3.210;2023-04-22T02:59:20;99166.92;;;3.77;100.00
45872;BME280;32333;55.844;-3.210;2023-04-22T03:01:47;99152.84;;;2.97;100.00
45872;BME280;32333;55.844;-3.210;2023-04-22T03:04:15;99149.81;;;3.50;100.00
45872;BME280;32333;55.844;-3.210;2023-04-22T03:06:43;99144.90;;;3.08;100.00
45872;BME280;32333;55.844;-3.210;2023-04-22T03:09:10;99141.26;;;3.20;100.00
45872;BME280;32333;55.844;-3.210;2023-04-22T03:11:38;99137.49;;;3.51;100.00
45872;BME280;32333;55.844;-3.210;2023-04-22T03:14:35;99128.10;;;3.45;100.00
45872;BME280;32333;55.844;-3.210;2023-04-22T03:17:03;99119.36;;;2.78;100.00
45872;BME280;32333;55.844;-3.210;2023-04-22T03:19:30;99115.97;;;3.27;100.00
45872;BME280;32333;55.844;-3.210;2023-04-22T03:21:57;99105.37;;;2.91;100.00
45872;BME280;32333;55.844;-3.210;2023-04-22T03:24:26;99102.32;;;3.69;100.00
45872;BME280;32333;55.844;-3.210;2023-04-22T03:26:54;99097.15;;;3.16;100.00
45872;BME280;32333;55.844;-3.210;2023-04-22T03:29:21;99104.68;;;3.30;100.00
45872;BME280;32333;55.844;-3.210;2023-04-22T03:31:49;99098.23;;;3.44;100.00
45872;BME280;32333;55.844;-3.210;2023-04-22T03:34:17;99094.42;;;3.38;100.00
45872;BME280;32333;55.844;-3.210;2023-04-22T03:36:45;99088.87;;;3.67;100.00
45872;BME280;32333;55.844;-3.210;2023-04-22T03:39:12;99104.36;;;3.44;100.00
45872;BME280;32333;55.844;-3.210;2023-04-22T03:41:39;99080.73;;;3.13;100.00
45872;BME280;32333;55.844;-3.210;2023-04-22T03:44:35;99076.78;;;2.79;100.00
45872;BME280;32333;55.844;-3.210;2023-04-22T03:47:03;99069.89;;;2.50;100.00
45872;BME280;32333;55.844;-3.210;2023-04-22T03:49:31;99065.61;;;2.72;100.00
45872;BME280;32333;55.844;-3.210;2023-04-22T03:51:58;99058.06;;;2.85;100.00
45872;BME280;32333;55.844;-3.210;2023-04-22T03:54:27;99052.65;;;2.78;100.00
45872;BME280;32333;55.844;-3.210;2023-04-22T03:56:54;99055.30;;;3.30;100.00
45872;BME280;32333;55.844;-3.210;2023-04-22T03:59:22;99045.06;;;3.43;100.00
45872;BME280;32333;55.844;-3.210;2023-04-22T04:01:51;99041.51;;;2.65;100.00
45872;BME280;32333;55.844;-3.210;2023-04-22T04:04:19;99036.85;;;2.56;100.00
45872;BME280;32333;55.844;-3.210;2023-04-22T04:06:46;99033.87;;;2.85;100.00
45872;BME280;32333;55.844;-3.210;2023-04-22T04:09:13;99038.50;;;2.66;100.00
45872;BME280;32333;55.844;-3.210;2023-04-22T04:11:41;99025.75;;;2.81;100.00
45872;BME280;32333;55.844;-3.210;2023-04-22T04:14:36;99025.27;;;2.84;100.00
45872;BME280;32333;55.844;-3.210;2023-04-22T04:17:03;99025.67;;;2.80;100.00
45872;BME280;32333;55.844;-3.210;2023-04-22T04:19:30;99015.65;;;3.18;100.00
45872;BME280;32333;55.844;-3.210;2023-04-22T04:21:57;99008.87;;;2.68;100.00
45872;BME280;32333;55.844;-3.210;2023-04-22T04:24:26;99006.62;;;3.26;100.00
45872;BME280;32333;55.844;-3.210;2023-04-22T04:26:53;99006.17;;;3.04;100.00
45872;BME280;32333;55.844;-3.210;2023-04-22T04:29:21;98996.63;;;3.35;100.00
45872;BME280;32333;55.844;-3.210;2023-04-22T04:31:49;98998.54;;;3.32;100.00
45872;BME280;32333;55.844;-3.210;2023-04-22T04:34:17;99000.97;;;3.01;100.00
45872;BME280;32333;55.844;-3.210;2023-04-22T04:36:44;98993.86;;;3.25;100.00
45872;BME280;32333;55.844;-3.210;2023-04-22T04:39:12;98991.82;;;2.57;100.00
45872;BME280;32333;55.844;-3.210;2023-04-22T04:41:39;98988.75;;;2.64;100.00
45872;BME280;32333;55.844;-3.210;2023-04-22T04:44:35;98980.98;;;3.34;100.00
45872;BME280;32333;55.844;-3.210;2023-04-22T04:47:03;98970.51;;;3.66;100.00
45872;BME280;32333;55.844;-3.210;2023-04-22T04:49:31;98967.80;;;3.25;100.00
45872;BME280;32333;55.844;-3.210;2023-04-22T04:51:59;98965.06;;;2.85;100.00
45872;BME280;32333;55.844;-3.210;2023-04-22T04:54:27;98962.44;;;1.93;100.00
45872;BME280;32333;55.844;-3.210;2023-04-22T04:56:54;98969.34;;;2.97;100.00
45872;BME280;32333;55.844;-3.210;2023-04-22T04:59:22;98963.35;;;3.83;100.00
45872;BME280;32333;55.844;-3.210;2023-04-22T05:01:50;98967.21;;;2.77;100.00
45872;BME280;32333;55.844;-3.210;2023-04-22T05:04:18;98964.44;;;3.08;100.00
45872;BME280;32333;55.844;-3.210;2023-04-22T05:06:45;98963.59;;;3.17;100.00
45872;BME280;32333;55.844;-3.210;2023-04-22T05:09:12;98962.34;;;3.05;100.00
45872;BME280;32333;55.844;-3.210;2023-04-22T05:11:40;98960.19;;;2.80;100.00
45872;BME280;32333;55.844;-3.210;2023-04-22T05:14:35;98954.77;;;3.73;100.00
45872;BME280;32333;55.844;-3.210;2023-04-22T05:17:03;98958.21;;;2.99;100.00
45872;BME280;32333;55.844;-3.210;2023-04-22T05:19:30;98956.41;;;2.49;100.00
45872;BME280;32333;55.844;-3.210;2023-04-22T05:21:57;98954.38;;;2.49;100.00
45872;BME280;32333;55.844;-3.210;2023-04-22T05:24:25;98944.67;;;3.40;100.00
45872;BME280;32333;55.844;-3.210;2023-04-22T05:26:52;98944.02;;;2.71;100.00
45872;BME280;32333;55.844;-3.210;2023-04-22T05:29:20;98941.65;;;2.80;100.00
45872;BME280;32333;55.844;-3.210;2023-04-22T05:31:48;98930.39;;;2.89;100.00
45872;BME280;32333;55.844;-3.210;2023-04-22T05:34:16;98926.16;;;2.56;100.00
45872;BME280;32333;55.844;-3.210;2023-04-22T05:36:43;98917.67;;;2.41;100.00
45872;BME280;32333;55.844;-3.210;2023-04-22T05:39:11;98922.19;;;2.26;100.00
45872;BME280;32333;55.844;-3.210;2023-04-22T05:41:39;98911.74;;;2.17;100.00
45872;BME280;32333;55.844;-3.210;2023-04-22T05:44:35;98919.78;;;2.12;100.00
45872;BME280;32333;55.844;-3.210;2023-04-22T05:47:03;98914.00;;;2.58;100.00
45872;BME280;32333;55.844;-3.210;2023-04-22T05:49:30;98918.68;;;2.27;100.00
45872;BME280;32333;55.844;-3.210;2023-04-22T05:51:58;98908.85;;;2.19;100.00
45872;BME280;32333;55.844;-3.210;2023-04-22T05:54:27;98911.58;;;2.31;100.00
45872;BME280;32333;55.844;-3.210;2023-04-22T05:56:55;98900.04;;;2.24;100.00
45872;BME280;32333;55.844;-3.210;2023-04-22T05:59:22;98893.88;;;2.51;100.00
45872;BME280;32333;55.844;-3.210;2023-04-22T06:01:50;98890.58;;;2.60;100.00
45872;BME280;32333;55.844;-3.210;2023-04-22T06:04:19;98888.28;;;2.59;100.00
45872;BME280;32333;55.844;-3.210;2023-04-22T06:06:46;98891.71;;;2.47;100.00
45872;BME280;32333;55.844;-3.210;2023-04-22T06:09:13;98887.82;;;2.57;100.00
45872;BME280;32333;55.844;-3.210;2023-04-22T06:11:41;98890.33;;;2.45;100.00
45872;BME280;32333;55.844;-3.210;2023-04-22T06:14:36;98879.68;;;2.60;100.00
45872;BME280;32333;55.844;-3.210;2023-04-22T06:17:03;98878.60;;;3.12;100.00
45872;BME280;32333;55.844;-3.210;2023-04-22T06:19:30;98873.33;;;2.94;100.00
45872;BME280;32333;55.844;-3.210;2023-04-22T06:21:58;98880.06;;;2.52;100.00
45872;BME280;32333;55.844;-3.210;2023-04-22T06:24:26;98857.81;;;3.19;100.00
45872;BME280;32333;55.844;-3.210;2023-04-22T06:26:53;98863.79;;;2.44;100.00
45872;BME280;32333;55.844;-3.210;2023-04-22T06:29:21;98858.21;;;3.14;100.00
45872;BME280;32333;55.844;-3.210;2023-04-22T06:31:48;98866.51;;;1.99;100.00
45872;BME280;32333;55.844;-3.210;2023-04-22T06:34:16;98861.46;;;2.56;100.00
45872;BME280;32333;55.844;-3.210;2023-04-22T06:36:44;98857.34;;;2.38;100.00
45872;BME280;32333;55.844;-3.210;2023-04-22T06:39:11;98856.36;;;2.54;100.00
45872;BME280;32333;55.844;-3.210;2023-04-22T06:41:38;98854.17;;;3.03;100.00
45872;BME280;32333;55.844;-3.210;2023-04-22T06:44:36;98836.73;;;3.40;100.00
45872;BME280;32333;55.844;-3.210;2023-04-22T06:47:03;98834.00;;;2.80;100.00
45872;BME280;32333;55.844;-3.210;2023-04-22T06:49:31;98831.40;;;2.69;100.00
45872;BME280;32333;55.844;-3.210;2023-04-22T06:51:58;98830.79;;;2.83;100.00
45872;BME280;32333;55.844;-3.210;2023-04-22T06:54:26;98821.24;;;3.13;100.00
45872;BME280;32333;55.844;-3.210;2023-04-22T06:56:54;98823.19;;;3.13;100.00
45872;BME280;32333;55.844;-3.210;2023-04-22T06:59:21;98819.20;;;3.00;100.00
45872;BME280;32333;55.844;-3.210;2023-04-22T07:01:48;98809.29;;;3.24;100.00
45872;BME280;32333;55.844;-3.210;2023-04-22T07:04:17;98814.68;;;3.26;100.00
45872;BME280;32333;55.844;-3.210;2023-04-22T07:06:44;98811.51;;;2.81;100.00
45872;BME280;32333;55.844;-3.210;2023-04-22T07:09:12;98802.86;;;3.37;100.00
45872;BME280;32333;55.844;-3.210;2023-04-22T07:11:39;98811.88;;;2.92;100.00
45872;BME280;32333;55.844;-3.210;2023-04-22T07:14:36;98812.95;;;3.60;100.00
45872;BME280;32333;55.844;-3.210;2023-04-22T07:17:04;98812.56;;;2.95;100.00
45872;BME280;32333;55.844;-3.210;2023-04-22T07:19:31;98808.71;;;3.94;100.00
45872;BME280;32333;55.844;-3.210;2023-04-22T07:22:00;98815.74;;;3.68;100.00
45872;BME280;32333;55.844;-3.210;2023-04-22T07:24:27;98813.24;;;3.36;100.00
45872;BME280;32333;55.844;-3.210;2023-04-22T07:26:55;98812.15;;;3.20;100.00
45872;BME280;32333;55.844;-3.210;2023-04-22T07:29:22;98815.17;;;3.16;100.00
45872;BME280;32333;55.844;-3.210;2023-04-22T07:31:50;98811.25;;;2.95;100.00
45872;BME280;32333;55.844;-3.210;2023-04-22T07:34:18;98810.43;;;3.35;100.00
45872;BME280;32333;55.844;-3.210;2023-04-22T07:36:45;98804.02;;;3.44;100.00
45872;BME280;32333;55.844;-3.210;2023-04-22T07:39:14;98802.91;;;4.10;100.00
45872;BME280;32333;55.844;-3.210;2023-04-22T07:41:41;98796.93;;;4.54;100.00
45872;BME280;32333;55.844;-3.210;2023-04-22T07:44:36;98791.07;;;3.27;100.00
45872;BME280;32333;55.844;-3.210;2023-04-22T07:47:03;98789.97;;;4.43;100.00
45872;BME280;32333;55.844;-3.210;2023-04-22T07:49:31;98780.21;;;4.34;100.00
45872;BME280;32333;55.844;-3.210;2023-04-22T07:51:59;98776.63;;;3.99;100.00
45872;BME280;32333;55.844;-3.210;2023-04-22T07:54:26;98768.41;;;2.90;100.00
45872;BME280;32333;55.844;-3.210;2023-04-22T07:56:54;98760.14;;;3.32;100.00
45872;BME280;32333;55.844;-3.210;2023-04-22T07:59:21;98759.83;;;3.53;100.00
45872;BME280;32333;55.844;-3.210;2023-04-22T08:01:49;98759.92;;;4.03;100.00
45872;BME280;32333;55.844;-3.210;2023-04-22T08:04:17;98764.63;;;4.00;100.00
45872;BME280;32333;55.844;-3.210;2023-04-22T08:06:44;98770.47;;;4.03;100.00
45872;BME280;32333;55.844;-3.210;2023-04-22T08:09:13;98772.91;;;3.88;100.00
45872;BME280;32333;55.844;-3.210;2023-04-22T08:11:40;98779.37;;;3.22;100.00
45872;BME280;32333;55.844;-3.210;2023-04-22T08:14:35;98771.79;;;3.52;100.00
45872;BME280;32333;55.844;-3.210;2023-04-22T08:17:03;98762.93;;;3.75;100.00
45872;BME280;32333;55.844;-3.210;2023-04-22T08:19:30;98753.69;;;3.88;100.00
45872;BME280;32333;55.844;-3.210;2023-04-22T08:21:58;98743.08;;;3.96;100.00
45872;BME280;32333;55.844;-3.210;2023-04-22T08:24:25;98736.16;;;3.91;100.00
45872;BME280;32333;55.844;-3.210;2023-04-22T08:26:53;98734.02;;;4.28;100.00
45872;BME280;32333;55.844;-3.210;2023-04-22T08:29:20;98735.63;;;4.09;100.00
45872;BME280;32333;55.844;-3.210;2023-04-22T08:31:48;98730.85;;;3.73;100.00
45872;BME280;32333;55.844;-3.210;2023-04-22T08:34:16;98735.26;;;3.96;100.00
45872;BME280;32333;55.844;-3.210;2023-04-22T08:36:44;98728.21;;;3.35;100.00
45872;BME280;32333;55.844;-3.210;2023-04-22T08:39:11;98722.46;;;3.42;100.00
45872;BME280;32333;55.844;-3.210;2023-04-22T08:41:43;98714.72;;;3.94;100.00
45872;BME280;32333;55.844;-3.210;2023-04-22T08:44:37;98701.58;;;3.76;100.00
45872;BME280;32333;55.844;-3.210;2023-04-22T08:47:05;98702.65;;;3.73;100.00
45872;BME280;32333;55.844;-3.210;2023-04-22T08:49:34;98692.72;;;4.33;100.00
45872;BME280;32333;55.844;-3.210;2023-04-22T08:52:02;98686.57;;;4.11;100.00
45872;BME280;32333;55.844;-3.210;2023-04-22T08:54:29;98676.91;;;3.42;100.00
45872;BME280;32333;55.844;-3.210;2023-04-22T08:56:56;98674.92;;;4.09;100.00
45872;BME280;32333;55.844;-3.210;2023-04-22T08:59:25;98671.74;;;4.48;100.00
45872;BME280;32333;55.844;-3.210;2023-04-22T09:01:54;98667.48;;;3.90;100.00
45872;BME280;32333;55.844;-3.210;2023-04-22T09:04:23;98663.02;;;3.75;100.00
45872;BME280;32333;55.844;-3.210;2023-04-22T09:06:50;98657.09;;;4.24;100.00
45872;BME280;32333;55.844;-3.210;2023-04-22T09:09:19;98657.92;;;4.53;100.00
45872;BME280;32333;55.844;-3.210;2023-04-22T09:11:47;98656.85;;;4.46;100.00
45872;BME280;32333;55.844;-3.210;2023-04-22T09:14:36;98668.15;;;4.29;100.00
45872;BME280;32333;55.844;-3.210;2023-04-22T09:17:04;98659.52;;;3.89;100.00
45872;BME280;32333;55.844;-3.210;2023-04-22T09:19:31;98657.27;;;4.92;100.00
45872;BME280;32333;55.844;-3.210;2023-04-22T09:21:58;98654.86;;;4.34;100.00
45872;BME280;32333;55.844;-3.210;2023-04-22T09:24:26;98652.48;;;4.31;100.00
45872;BME280;32333;55.844;-3.210;2023-04-22T09:26:54;98652.69;;;4.43;100.00
45872;BME280;32333;55.844;-3.210;2023-04-22T09:29:22;98654.78;;;3.42;100.00
45872;BME280;32333;55.844;-3.210;2023-04-22T09:31:55;98662.21;;;3.37;100.00
45872;BME280;32333;55.844;-3.210;2023-04-22T09:34:26;98646.49;;;3.82;100.00
45872;BME280;32333;55.844;-3.210;2023-04-22T09:36:54;98647.10;;;4.00;100.00
45872;BME280;32333;55.844;-3.210;2023-04-22T09:39:22;98648.31;;;3.64;100.00
45872;BME280;32333;55.844;-3.210;2023-04-22T09:41:57;98651.32;;;4.12;100.00
45872;BME280;32333;55.844;-3.210;2023-04-22T09:44:35;98642.34;;;3.33;100.00
45872;BME280;32333;55.844;-3.210;2023-04-22T09:47:05;98643.32;;;3.48;100.00
45872;BME280;32333;55.844;-3.210;2023-04-22T09:49:35;98639.77;;;3.04;100.00
45872;BME280;32333;55.844;-3.210;2023-04-22T09:52:03;98634.60;;;3.92;100.00
45872;BME280;32333;55.844;-3.210;2023-04-22T09:54:32;98628.28;;;3.36;100.00
45872;BME280;32333;55.844;-3.210;2023-04-22T09:57:00;98622.62;;;3.52;100.00
45872;BME280;32333;55.844;-3.210;2023-04-22T09:59:28;98616.28;;;3.02;100.00
45872;BME280;32333;55.844;-3.210;2023-04-22T10:02:00;98626.08;;;3.49;100.00
45872;BME280;32333;55.844;-3.210;2023-04-22T10:04:29;98614.00;;;3.90;100.00
45872;BME280;32333;55.844;-3.210;2023-04-22T10:06:57;98616.73;;;3.41;100.00
45872;BME280;32333;55.844;-3.210;2023-04-22T10:09:24;98608.24;;;2.77;100.00
45872;BME280;32333;55.844;-3.210;2023-04-22T10:11:53;98601.63;;;2.94;100.00
45872;BME280;32333;55.844;-3.210;2023-04-22T10:14:36;98604.19;;;2.97;100.00
45872;BME280;32333;55.844;-3.210;2023-04-22T10:17:04;98585.40;;;3.48;100.00
45872;BME280;32333;55.844;-3.210;2023-04-22T10:19:33;98574.52;;;3.61;100.00
45872;BME280;32333;55.844;-3.210;2023-04-22T10:22:02;98571.21;;;4.25;100.00
45872;BME280;32333;55.844;-3.210;2023-04-22T10:24:35;98566.35;;;4.41;100.00
45872;BME280;32333;55.844;-3.210;2023-04-22T10:27:04;98545.32;;;4.06;100.00
45872;BME280;32333;55.844;-3.210;2023-04-22T10:29:35;98564.33;;;3.21;100.00
45872;BME280;32333;55.844;-3.210;2023-04-22T10:32:04;98564.53;;;3.61;100.00
45872;BME280;32333;55.844;-3.210;2023-04-22T10:34:35;98559.78;;;3.26;100.00
45872;BME280;32333;55.844;-3.210;2023-04-22T10:37:05;98567.99;;;3.89;100.00
45872;BME280;32333;55.844;-3.210;2023-04-22T10:39:33;98569.80;;;3.72;100.00
45872;BME280;32333;55.844;-3.210;2023-04-22T10:44:53;98553.47;;;3.06;100.00
45872;BME280;32333;55.844;-3.210;2023-04-22T10:47:29;98574.13;;;3.36;100.00
45872;BME280;32333;55.844;-3.210;2023-04-22T10:50:15;98555.60;;;3.53;100.00
45872;BME280;32333;55.844;-3.210;2023-04-22T10:52:46;98552.51;;;3.59;100.00
45872;BME280;32333;55.844;-3.210;2023-04-22T10:55:15;98553.18;;;3.05;100.00
45872;BME280;32333;55.844;-3.210;2023-04-22T10:57:44;98559.43;;;3.25;100.00
45872;BME280;32333;55.844;-3.210;2023-04-22T11:00:30;98550.82;;;3.36;100.00
45872;BME280;32333;55.844;-3.210;2023-04-22T11:03:15;98551.24;;;3.52;100.00
45872;BME280;32333;55.844;-3.210;2023-04-22T11:05:43;98548.62;;;3.69;100.00
45872;BME280;32333;55.844;-3.210;2023-04-22T11:08:14;98547.50;;;3.56;100.00
45872;BME280;32333;55.844;-3.210;2023-04-22T11:10:45;98551.51;;;3.93;100.00
45872;BME280;32333;55.844;-3.210;2023-04-22T11:14:36;98549.04;;;3.75;100.00
45872;BME280;32333;55.844;-3.210;2023-04-22T11:17:04;98548.72;;;3.87;100.00
45872;BME280;32333;55.844;-3.210;2023-04-22T11:19:32;98558.15;;;3.41;100.00
45872;BME280;32333;55.844;-3.210;2023-04-22T11:22:00;98550.54;;;3.15;100.00
45872;BME280;32333;55.844;-3.210;2023-04-22T11:24:28;98544.42;;;3.58;100.00
45872;BME280;32333;55.844;-3.210;2023-04-22T11:26:56;98544.27;;;3.65;100.00
45872;BME280;32333;55.844;-3.210;2023-04-22T11:29:24;98548.67;;;3.97;100.00
45872;BME280;32333;55.844;-3.210;2023-04-22T11:31:52;98550.30;;;3.45;100.00
45872;BME280;32333;55.844;-3.210;2023-04-22T11:34:19;98544.16;;;3.51;100.00
45872;BME280;32333;55.844;-3.210;2023-04-22T11:36:48;98539.88;;;3.26;100.00
45872;BME280;32333;55.844;-3.210;2023-04-22T11:39:15;98537.81;;;3.90;100.00
45872;BME280;32333;55.844;-3.210;2023-04-22T11:41:43;98530.44;;;4.69;100.00
45872;BME280;32333;55.844;-3.210;2023-04-22T11:44:35;98533.69;;;4.05;100.00
45872;BME280;32333;55.844;-3.210;2023-04-22T11:47:03;98531.25;;;4.24;100.00
45872;BME280;32333;55.844;-3.210;2023-04-22T11:49:30;98532.40;;;4.02;100.00
45872;BME280;32333;55.844;-3.210;2023-04-22T11:51:59;98521.45;;;3.66;100.00
45872;BME280;32333;55.844;-3.210;2023-04-22T11:54:31;98522.38;;;3.48;100.00
45872;BME280;32333;55.844;-3.210;2023-04-22T11:57:01;98521.93;;;4.29;100.00
45872;BME280;32333;55.844;-3.210;2023-04-22T11:59:29;98518.46;;;4.05;100.00
45872;BME280;32333;55.844;-3.210;2023-04-22T12:01:57;98517.61;;;3.76;100.00
45872;BME280;32333;55.844;-3.210;2023-04-22T12:04:25;98515.23;;;3.65;100.00
45872;BME280;32333;55.844;-3.210;2023-04-22T12:06:52;98517.72;;;4.00;100.00
45872;BME280;32333;55.844;-3.210;2023-04-22T12:09:23;98520.09;;;4.26;100.00
45872;BME280;32333;55.844;-3.210;2023-04-22T12:11:51;98512.08;;;4.21;100.00
45872;BME280;32333;55.844;-3.210;2023-04-22T12:14:35;98513.51;;;4.04;100.00
45872;BME280;32333;55.844;-3.210;2023-04-22T12:17:03;98508.86;;;4.15;100.00
45872;BME280;32333;55.844;-3.210;2023-04-22T12:19:31;98514.33;;;3.40;100.00
45872;BME280;32333;55.844;-3.210;2023-04-22T12:21:59;98511.37;;;3.37;100.00
45872;BME280;32333;55.844;-3.210;2023-04-22T12:24:28;98505.17;;;3.20;100.00
45872;BME280;32333;55.844;-3.210;2023-04-22T12:26:55;98508.53;;;3.01;100.00
45872;BME280;32333;55.844;-3.210;2023-04-22T12:29:30;98513.19;;;3.63;100.00
45872;BME280;32333;55.844;-3.210;2023-04-22T12:31:59;98502.45;;;3.81;100.00
45872;BME280;32333;55.844;-3.210;2023-04-22T12:34:26;98501.38;;;3.41;100.00
45872;BME280;32333;55.844;-3.210;2023-04-22T12:36:53;98504.45;;;3.32;100.00
45872;BME280;32333;55.844;-3.210;2023-04-22T12:39:20;98507.75;;;3.60;100.00
45872;BME280;32333;55.844;-3.210;2023-04-22T12:41:48;98506.73;;;3.61;100.00
45872;BME280;32333;55.844;-3.210;2023-04-22T12:44:36;98501.62;;;3.82;100.00
45872;BME280;32333;55.844;-3.210;2023-04-22T12:47:04;98499.33;;;3.50;100.00
45872;BME280;32333;55.844;-3.210;2023-04-22T12:49:32;98494.63;;;3.76;100.00
45872;BME280;32333;55.844;-3.210;2023-04-22T12:51:59;98497.77;;;3.32;100.00
45872;BME280;32333;55.844;-3.210;2023-04-22T12:54:27;98494.25;;;3.53;100.00
45872;BME280;32333;55.844;-3.210;2023-04-22T12:56:55;98486.66;;;3.54;100.00
45872;BME280;32333;55.844;-3.210;2023-04-22T12:59:22;98485.69;;;3.37;100.00
45872;BME280;32333;55.844;-3.210;2023-04-22T13:01:50;98490.90;;;3.41;100.00
45872;BME280;32333;55.844;-3.210;2023-04-22T13:04:18;98480.59;;;3.19;100.00
45872;BME280;32333;55.844;-3.210;2023-04-22T13:06:45;98488.60;;;3.47;100.00
45872;BME280;32333;55.844;-3.210;2023-04-22T13:09:13;98487.84;;;3.83;100.00